Date,TemperatureHighF,TemperatureAvgF,TemperatureLowF,DewpointHighF,DewpointAvgF,DewpointLowF,HumidityHigh,HumidityAvg,HumidityLow,PressureMaxIn,PressureMinIn,WindSpeedMaxMPH,WindSpeedAvgMPH,GustSpeedMaxMPH,PrecipitationSumIn
2013-1-1,43,39,31,42,38,27,96,93,87,30.19,29.99,10,3,19,0.60
2013-1-2,35,30,26,27,24,20,90,77,55,30.28,30.17,6,2,11,0.00
2013-1-3,44,34,24,31,26,22,93,76,50,30.41,30.24,6,1,11,0.00
2013-1-4,50,36,26,33,28,24,94,75,44,30.49,30.37,5,0,8,0.00
2013-1-5,46,38,29,38,32,27,94,78,59,30.38,30.24,6,1,11,0.00
2013-1-6,51,41,32,38,35,28,95,80,54,30.37,30.21,7,2,13,0.00
2013-1-7,53,37,26,31,27,23,92,72,35,30.42,30.19,7,1,13,0.00
2013-1-8,59,45,30,43,35,27,92,71,47,30.26,30.13,6,0,10,0.00
2013-1-9,56,54,52,54,52,44,97,93,72,30.33,30.18,8,2,14,0.32
2013-1-10,69,62,55,65,60,54,97,94,85,30.26,29.87,14,6,31,1.17
2013-1-11,68,62,55,60,54,49,94,76,53,30.02,29.90,11,4,20,0.16
2013-1-12,72,69,64,68,66,62,97,90,81,29.93,29.71,12,4,24,0.37
2013-1-13,71,43,32,65,41,28,95,92,81,30.25,29.70,12,5,23,2.24
2013-1-14,32,29,27,30,25,23,92,84,78,30.38,30.24,10,6,21,0.02
2013-1-15,31,29,26,30,26,23,95,90,84,30.26,30.03,10,4,17,0.00
2013-1-16,33,32,30,31,30,28,95,92,90,30.17,30.04,5,1,9,0.09
2013-1-17,47,38,33,38,32,28,93,79,63,30.45,30.11,10,2,19,0.07
2013-1-18,55,39,27,32,28,25,94,68,32,30.55,30.33,7,1,10,0.01
2013-1-19,58,47,36,38,33,30,79,60,36,30.33,30.15,10,3,20,0.00
2013-1-20,60,47,35,38,33,29,90,61,35,30.25,30.14,7,1,14,0.00
2013-1-21,42,35,27,30,22,17,81,59,38,30.34,30.15,9,3,16,0.00
2013-1-22,40,32,25,23,19,15,87,60,38,30.42,30.29,5,1,14,0.00
2013-1-23,56,40,27,38,30,19,85,67,48,30.33,30.14,5,0,12,0.00
2013-1-24,42,39,35,39,25,19,91,59,43,30.42,30.19,10,3,18,0.00
2013-1-25,48,40,34,44,33,21,94,79,45,30.23,30.01,8,2,17,0.18
2013-1-26,54,42,31,38,33,29,96,72,42,30.32,30.22,5,1,12,0.01
2013-1-27,64,55,47,54,45,35,80,69,62,30.24,30.09,9,2,19,0.00
2013-1-28,73,64,59,62,57,53,89,78,66,30.14,30.03,15,6,24,0.00
2013-1-29,76,68,61,65,61,58,92,78,59,30.04,29.40,18,7,35,0.30
2013-1-30,64,49,35,63,42,26,97,78,57,30.01,29.47,20,6,33,0.53
2013-1-31,55,46,32,34,30,24,80,55,40,30.31,30.00,10,5,22,0.00
2013-2-1,39,30,22,24,13,8,72,52,30,30.53,30.29,10,3,17,0.00
2013-2-2,52,39,27,36,29,18,86,69,48,30.29,30.12,5,1,12,0.00
2013-2-3,54,46,38,36,32,25,78,59,34,30.17,30.08,11,4,21,0.00
2013-2-4,58,46,36,45,35,29,91,67,37,30.09,29.89,8,2,19,0.07
2013-2-5,65,51,39,50,44,37,95,78,49,30.03,29.91,5,0,10,0.06
2013-2-6,63,51,39,44,41,37,96,72,48,30.19,30.02,7,1,13,0.00
2013-2-7,69,57,44,56,49,39,91,74,57,30.02,29.84,6,1,11,0.07
2013-2-8,58,45,35,56,40,31,95,82,70,30.29,29.87,14,6,27,0.45
2013-2-9,51,42,31,41,34,28,93,75,54,30.31,30.02,7,2,14,0.00
2013-2-10,61,56,51,58,49,38,95,78,55,30.02,29.72,15,6,23,0.76
2013-2-11,59,52,46,53,34,29,81,53,33,30.18,29.93,6,1,13,0.01
2013-2-12,51,47,39,42,38,34,91,73,52,30.14,29.78,9,1,15,0.01
2013-2-13,45,42,39,42,38,36,95,87,77,30.00,29.76,7,2,15,0.05
2013-2-14,62,49,37,41,37,35,94,68,38,30.04,29.97,8,3,15,0.01
2013-2-15,54,46,37,40,33,26,85,62,38,30.18,30.02,9,3,17,0.00
2013-2-16,39,35,30,27,21,16,73,58,40,30.25,30.18,9,3,15,0.00
2013-2-17,56,44,33,32,25,19,62,48,34,30.24,30.05,10,4,18,0.00
2013-2-18,58,52,45,52,43,32,93,73,51,30.06,29.73,15,7,28,0.87
2013-2-19,49,42,33,42,29,24,83,61,37,30.25,29.93,12,4,19,0.77
2013-2-20,36,33,31,29,20,15,84,59,45,30.34,30.17,6,2,13,0.00
2013-2-21,46,39,33,44,32,23,95,77,46,30.17,29.73,9,3,24,0.78
2013-2-22,50,43,37,42,38,33,96,85,65,30.06,29.85,7,1,12,0.08
2013-2-23,53,40,31,33,30,28,92,71,41,30.05,29.93,6,1,11,0.00
2013-2-24,60,44,30,34,31,28,94,64,36,30.09,29.89,7,1,13,0.00
2013-2-25,59,52,41,54,39,28,94,63,42,29.90,29.30,14,5,30,0.61
2013-2-26,55,46,42,53,39,34,94,79,69,29.79,29.31,14,6,25,0.62
2013-2-27,45,42,40,36,33,29,74,70,60,29.96,29.80,8,4,17,0.00
2013-2-28,43,40,36,32,29,27,75,65,57,30.09,29.96,8,3,16,0.00
2013-3-1,38,36,34,30,29,26,79,74,67,30.14,30.07,8,4,14,0.00
2013-3-2,35,33,31,31,26,23,95,77,65,30.23,30.12,9,4,14,0.00
2013-3-3,49,37,23,28,23,19,93,60,34,30.22,30.04,5,0,11,0.00
2013-3-4,69,54,39,48,33,25,63,46,26,30.05,29.73,12,4,22,0.00
2013-3-5,64,51,39,57,39,24,94,67,40,30.16,29.74,14,7,25,0.37
2013-3-6,46,39,34,31,26,23,85,61,49,30.34,30.16,13,4,21,0.01
2013-3-7,54,42,32,33,30,28,95,67,41,30.37,30.26,5,1,11,0.00
2013-3-8,68,49,33,38,30,20,85,55,18,30.37,30.15,6,1,11,0.00
2013-3-9,71,60,49,40,34,31,60,39,24,30.15,29.90,9,2,21,0.00
2013-3-10,65,59,52,58,51,40,96,76,42,29.93,29.72,12,5,28,0.92
2013-3-11,53,43,37,51,36,32,93,75,57,30.02,29.82,10,3,18,0.29
2013-3-12,57,43,30,37,30,22,95,65,29,30.19,30.01,6,1,13,0.00
2013-3-13,50,44,36,36,27,24,80,52,37,30.39,30.19,10,4,16,0.00
2013-3-14,64,46,31,39,30,24,92,59,28,30.40,30.15,9,2,17,0.00
2013-3-15,78,64,50,53,45,37,67,52,41,30.15,29.87,12,4,24,0.00
2013-3-16,77,68,59,56,53,47,77,60,45,29.90,29.80,11,5,21,0.00
2013-3-17,70,59,52,56,51,46,91,76,57,29.89,29.66,8,2,13,0.00
2013-3-18,68,56,45,62,51,42,94,85,69,30.02,29.64,8,2,20,0.36
2013-3-19,59,48,36,43,31,21,95,59,24,30.18,30.02,9,2,13,0.01
2013-3-20,54,47,36,35,26,10,81,47,23,30.21,30.06,12,4,24,0.01
2013-3-21,47,39,31,33,18,12,89,46,26,30.10,29.93,6,2,11,0.04
2013-3-22,46,42,34,44,40,31,95,93,89,29.98,29.85,6,2,13,0.43
2013-3-23,55,50,45,50,47,44,95,90,80,29.90,29.66,9,2,15,0.31
2013-3-24,51,46,37,50,41,27,97,83,64,29.93,29.53,14,6,28,0.37
2013-3-25,40,37,33,28,25,21,69,61,52,30.23,29.93,15,7,26,0.01
2013-3-26,47,38,32,28,26,23,79,62,43,30.34,30.22,9,4,17,0.00
2013-3-27,61,44,28,35,29,26,93,62,29,30.40,30.27,8,1,15,0.00
2013-3-28,71,53,35,42,35,32,91,57,25,30.33,30.19,6,1,11,0.00
2013-3-29,65,55,48,54,45,35,93,72,36,30.24,30.14,7,1,17,0.13
2013-3-30,58,54,49,57,51,-100,96,94,92,30.16,29.91,7,0,12,0.36
2013-3-31,63,58,50,60,55,48,98,91,75,29.95,29.85,6,1,13,0.34
2013-4-1,70,56,42,51,45,40,97,70,40,30.10,29.91,7,2,16,0.00
2013-4-2,54,46,40,40,33,28,91,62,43,30.24,30.08,10,3,19,0.26
2013-4-3,51,46,40,37,31,25,85,57,42,30.20,30.09,10,3,17,0.29
2013-4-4,50,45,41,45,41,30,96,88,46,30.10,29.96,5,2,11,0.25
2013-4-5,72,54,43,48,41,32,98,67,27,30.15,30.02,7,1,12,0.06
2013-4-6,77,60,43,46,41,33,94,56,22,30.08,29.89,10,3,23,0.00
2013-4-7,71,64,57,56,52,44,83,65,51,30.01,29.88,8,2,19,0.00
2013-4-8,81,70,61,60,57,53,82,66,45,29.96,29.83,14,4,22,0.00
2013-4-9,83,74,65,68,64,58,85,72,56,29.96,29.84,11,4,24,0.01
2013-4-10,85,78,72,67,66,62,83,68,50,29.92,29.65,14,6,24,0.07
2013-4-11,75,53,45,67,51,43,95,93,75,29.79,29.64,7,2,21,2.07
2013-4-12,70,54,40,49,43,38,97,70,39,29.98,29.79,9,2,20,0.03
2013-4-13,77,60,44,50,43,38,91,60,27,30.09,29.89,7,1,12,0.00
2013-4-14,70,62,52,57,52,47,86,72,52,29.90,29.72,15,4,25,0.00
2013-4-15,84,69,57,64,59,54,93,72,47,29.90,29.79,10,3,18,0.00
2013-4-16,86,77,70,72,69,63,88,77,58,30.02,29.88,11,3,20,0.00
2013-4-17,88,78,70,71,69,66,92,74,50,30.05,29.82,10,3,19,0.00
2013-4-18,80,71,47,69,62,43,98,75,55,29.85,29.59,12,6,25,1.79
2013-4-19,56,48,42,43,35,30,90,63,43,30.12,29.82,9,4,20,1.80
2013-4-20,70,55,37,46,38,33,96,60,27,30.24,30.12,5,1,11,0.00
2013-4-21,71,59,45,44,39,34,84,52,27,30.32,30.16,7,1,17,0.00
2013-4-22,78,62,44,52,46,41,92,60,35,30.18,29.99,8,2,18,0.00
2013-4-23,75,67,59,62,58,51,88,74,60,30.03,29.87,11,4,26,0.00
2013-4-24,69,51,43,64,45,40,94,82,56,30.27,29.84,13,4,20,1.35
2013-4-25,72,54,37,47,40,35,96,66,28,30.37,30.26,7,1,11,0.01
2013-4-26,67,56,49,52,47,41,90,73,42,30.39,30.19,7,1,14,0.10
2013-4-27,56,55,54,51,50,50,87,84,81,30.20,30.03,6,2,16,0.10
2013-4-29,83,76,60,58,56,54,86,52,39,29.99,29.85,6,2,11,0.00
2013-4-30,85,70,54,60,56,51,92,63,36,29.94,29.86,9,1,15,0.00
2013-5-1,80,69,60,68,62,56,91,78,58,30.02,29.91,10,1,16,0.01
2013-5-2,71,65,63,63,61,59,96,88,71,30.09,29.98,4,0,10,0.37
2013-5-3,64,49,39,63,48,37,96,94,88,29.98,29.87,6,2,13,2.12
2013-5-4,58,46,35,46,40,34,97,82,52,29.96,29.85,9,1,18,0.08
2013-5-5,62,52,45,50,46,43,96,82,51,29.91,29.85,9,2,15,0.50
2013-5-6,64,58,53,57,54,50,94,86,73,29.93,29.83,9,2,18,0.01
2013-5-7,78,65,51,61,56,49,97,76,49,29.99,29.91,5,0,12,0.00
2013-5-8,85,70,53,63,57,51,96,68,38,30.05,29.97,6,0,10,0.00
2013-5-9,83,71,58,64,60,56,95,72,48,30.05,29.93,10,2,23,0.00
2013-5-10,77,68,64,69,63,-100,97,90,72,29.94,29.84,8,1,24,1.45
2013-5-11,74,66,60,65,57,-100,96,76,47,30.05,29.90,6,2,12,0.09
2013-5-12,70,60,49,57,39,29,90,49,26,30.21,30.05,9,3,17,0.00
2013-5-13,78,63,44,54,47,42,95,62,30,30.25,30.10,7,1,13,0.00
2013-5-14,88,75,60,60,55,51,74,52,34,30.10,29.98,9,3,23,0.00
2013-5-15,87,77,66,58,54,47,68,47,30,30.09,29.92,9,3,24,0.00
2013-5-16,78,67,66,66,42,-100,93,71,55,29.98,29.87,7,1,14,0.02
2013-5-17,82,71,67,70,62,-100,95,83,63,29.92,29.85,8,2,13,0.13
2013-5-18,88,76,65,75,70,63,96,83,64,29.96,29.88,6,1,14,0.04
2013-5-19,90,81,74,74,70,65,90,71,47,29.95,29.84,10,3,20,0.00
2013-5-20,88,81,74,73,71,69,88,72,57,29.93,29.80,10,4,24,0.00
2013-5-21,81,71,65,73,68,63,97,89,72,29.98,29.76,11,2,24,2.08
2013-5-22,82,71,63,67,64,60,97,80,51,29.89,29.73,9,2,15,1.19
2013-5-23,85,74,63,65,62,58,94,67,46,30.09,29.88,7,2,14,0.00
2013-5-24,77,66,57,58,52,49,84,63,38,30.28,30.09,10,3,18,0.00
2013-5-25,82,68,51,60,53,49,94,64,34,30.28,30.12,5,0,12,0.00
2013-5-26,88,74,58,61,58,53,95,63,31,30.17,30.05,7,1,13,0.00
2013-5-27,87,77,64,70,63,59,88,64,43,30.07,29.93,11,3,21,0.00
2013-5-28,90,80,72,70,65,58,80,63,40,30.01,29.93,10,4,17,0.00
2013-5-29,90,80,68,69,65,59,78,61,39,30.01,29.90,10,4,18,0.00
2013-5-30,86,78,74,72,69,66,86,75,61,30.00,29.88,12,4,24,0.00
2013-5-31,86,77,66,75,72,64,96,83,67,29.99,29.81,12,2,23,2.00
2013-6-1,82,74,68,74,70,65,96,88,66,29.96,29.79,10,2,31,0.36
2013-6-2,81,73,67,70,66,61,97,80,58,29.95,29.88,6,1,13,0.02
2013-6-3,84,72,61,65,62,59,95,73,45,30.00,29.90,6,1,10,0.01
2013-6-4,89,75,61,67,63,58,92,67,44,29.99,29.88,4,0,8,0.00
2013-6-5,90,78,68,75,69,64,91,76,57,29.93,29.77,8,1,18,0.05
2013-6-6,85,76,69,69,68,66,94,76,53,29.82,29.73,5,1,12,0.01
2013-6-7,83,75,66,67,61,54,79,65,39,29.87,29.75,6,2,12,0.00
2013-6-8,87,74,60,64,59,53,94,65,34,29.96,29.85,4,0,8,0.00
2013-6-9,90,76,66,71,67,60,91,75,49,29.96,29.78,10,2,18,0.00
2013-6-10,93,81,70,72,69,65,96,70,40,29.90,29.84,9,2,17,0.01
2013-6-11,99,86,77,75,72,69,81,65,42,30.00,29.89,7,2,13,0.01
2013-6-12,98,88,75,77,74,71,89,65,45,30.03,29.88,8,2,18,0.00
2013-6-13,95,85,76,76,71,65,77,64,42,29.93,29.85,10,3,20,0.00
2013-6-14,89,78,67,67,62,57,93,62,39,30.02,29.92,7,1,16,0.00
2013-6-15,92,79,64,69,65,61,95,66,40,30.04,29.95,6,1,11,0.00
2013-6-16,91,80,70,76,70,67,93,74,53,30.01,29.91,6,0,12,0.00
2013-6-17,84,77,72,76,72,69,96,85,69,29.96,29.82,6,1,15,1.51
2013-6-18,87,76,69,72,70,68,97,83,55,29.95,29.81,5,1,10,1.44
2013-6-19,94,78,67,74,69,66,96,78,42,30.02,29.92,13,0,23,0.65
2013-6-20,95,79,68,73,69,67,97,75,40,30.10,30.01,3,0,9,0.66
2013-6-22,93,88,78,72,70,68,79,57,44,30.11,29.98,7,2,15,0.00
2013-6-23,94,82,73,74,70,66,86,68,44,30.08,29.98,7,1,12,0.00
2013-6-24,96,84,74,75,73,70,89,70,46,30.10,29.97,6,1,12,0.00
2013-6-25,94,84,76,76,73,70,88,72,48,30.05,29.90,8,2,16,0.00
2013-6-26,94,85,77,75,72,70,85,66,46,29.96,29.82,10,2,21,0.00
2013-6-27,100,87,78,79,75,69,80,69,48,29.89,29.78,7,2,18,0.00
2013-6-28,91,81,72,76,72,69,95,76,51,29.88,29.69,15,1,31,0.64
2013-6-29,91,81,68,70,64,58,94,61,35,29.74,29.66,7,2,19,0.05
2013-6-30,81,73,67,66,64,62,86,74,58,29.80,29.69,8,2,17,0.00
2013-7-1,81,73,67,67,65,61,93,77,58,29.91,29.79,8,2,16,0.00
2013-7-2,87,75,64,66,63,59,93,68,45,30.01,29.89,8,1,12,0.00
2013-7-3,87,75,64,68,64,62,94,72,44,30.07,29.98,5,0,10,0.00
2013-7-4,90,77,64,72,68,62,95,75,46,30.02,29.92,5,0,12,0.00
2013-7-5,88,75,67,73,69,64,96,82,54,30.04,29.94,8,1,20,0.74
2013-7-6,90,76,67,72,69,64,95,81,49,30.04,29.93,6,1,16,0.74
2013-7-7,80,75,72,74,71,70,94,88,80,30.06,30.00,4,0,8,0.00
2013-7-8,94,84,72,77,72,-100,95,72,49,30.11,30.03,5,1,11,0.00
2013-7-9,95,86,76,75,73,71,91,68,48,30.10,29.97,6,1,12,0.00
2013-7-10,97,87,81,78,71,-100,76,63,49,30.02,29.85,7,1,12,0.00
2013-7-11,95,84,76,77,72,65,89,67,47,29.94,29.87,8,2,15,0.00
2013-7-12,90,79,67,66,63,60,80,60,43,30.00,29.92,9,2,16,0.00
2013-7-13,89,77,63,65,62,59,92,63,40,30.01,29.92,8,1,13,0.00
2013-7-14,90,77,67,73,69,64,92,77,56,30.05,29.94,8,1,19,0.00
2013-7-15,92,80,73,76,73,71,95,81,56,30.16,30.04,6,1,18,0.00
2013-7-16,94,83,73,75,72,71,94,73,49,30.23,30.15,7,1,14,0.00
2013-7-17,99,86,73,77,73,70,95,69,42,30.27,30.12,7,0,13,0.00
2013-7-18,94,80,72,79,74,71,97,85,56,30.16,30.00,11,0,17,1.47
2013-7-19,92,80,71,76,72,70,98,79,54,30.05,29.91,6,1,12,0.23
2013-7-20,94,84,75,77,73,71,90,72,51,29.95,29.81,6,1,13,0.00
2013-7-21,94,85,76,76,72,69,88,68,48,29.94,29.85,8,2,17,0.00
2013-7-22,88,80,72,77,73,70,96,81,64,29.93,29.83,10,2,18,2.21
2013-7-23,92,80,70,78,74,68,95,82,59,29.98,29.80,7,1,17,0.41
2013-7-24,87,80,75,76,73,70,91,79,62,29.94,29.82,8,1,12,0.08
2013-7-25,84,75,66,69,64,61,90,71,47,30.04,29.93,7,1,16,0.00
2013-7-26,85,74,63,69,66,61,96,76,49,30.04,29.94,3,0,10,0.00
2013-7-27,88,78,70,70,69,65,93,75,51,29.98,29.86,4,0,10,0.00
2013-7-28,84,74,67,68,64,62,88,73,49,30.04,29.92,5,0,11,0.00
2013-7-29,91,77,66,70,66,61,90,71,48,30.12,30.02,6,1,11,0.00
2013-7-30,86,79,74,75,71,67,87,76,63,30.10,29.98,6,1,12,0.00
2013-7-31,92,80,75,78,74,72,94,83,62,30.03,29.90,7,1,12,0.13
2013-8-1,88,79,73,74,72,68,96,79,55,30.02,29.93,7,1,11,0.05
2013-8-2,93,80,67,73,69,66,96,72,43,30.00,29.92,6,0,12,0.00
2013-8-3,83,78,74,75,72,70,92,82,72,30.04,29.90,6,1,14,0.04
2013-8-4,92,80,71,76,72,69,96,78,55,30.09,30.01,7,0,11,0.01
2013-8-5,83,77,72,77,72,68,96,86,72,30.03,29.88,4,0,10,0.64
2013-8-6,87,80,75,78,75,73,96,85,71,29.93,29.84,6,1,12,0.01
2013-8-7,95,84,77,79,76,72,89,76,49,29.93,29.83,4,0,11,0.01
2013-8-8,99,86,78,78,76,73,94,74,47,29.92,29.83,4,0,10,0.00
2013-8-9,97,87,77,79,76,73,91,72,47,29.98,29.89,5,1,13,0.00
2013-8-10,92,82,77,77,74,71,89,77,53,30.11,29.97,6,1,16,0.02
2013-8-11,87,78,74,79,75,72,96,89,75,30.11,30.01,7,0,13,0.75
2013-8-12,93,82,73,78,75,71,94,80,61,30.03,29.90,8,1,14,0.13
2013-8-13,86,77,72,75,70,-100,96,83,66,29.99,29.90,4,1,10,0.14
2013-8-14,79,72,68,68,57,-100,85,68,49,30.06,29.95,10,3,14,0.01
2013-8-15,83,64,59,62,36,-100,89,57,40,30.06,29.98,5,1,11,0.00
2013-8-16,85,70,62,69,61,-100,92,78,55,30.03,29.96,5,0,9,0.00
2013-8-17,80,71,66,69,67,64,95,87,68,30.06,30.01,5,0,8,0.00
2013-8-21,93,85,78,76,74,72,87,71,51,30.07,30.01,1,0,4,0.00
2013-8-22,96,83,74,77,74,72,95,76,51,30.10,29.98,3,0,7,0.00
2013-8-23,95,83,71,76,72,69,96,73,44,30.05,29.96,5,0,12,0.00
2013-8-24,95,82,73,77,72,-100,95,74,52,30.11,30.01,5,0,12,0.00
2013-8-25,89,80,75,76,74,72,91,81,62,30.23,30.11,5,1,10,0.00
2013-8-26,93,81,71,73,70,68,94,72,45,30.23,30.09,4,0,11,0.00
2013-8-27,93,78,68,69,67,65,94,71,43,30.13,30.04,5,1,10,0.00
2013-8-28,96,89,76,72,69,66,85,54,39,30.06,29.98,3,1,8,0.00
2013-8-29,96,83,70,76,71,68,94,70,44,30.05,29.94,5,1,11,0.00
2013-8-30,99,85,73,77,73,70,95,71,41,29.99,29.86,5,0,9,0.00
2013-8-31,99,86,75,74,70,-100,91,65,42,29.90,29.79,7,1,11,0.00
2013-9-1,97,84,77,75,72,70,86,69,46,29.88,29.78,8,2,18,0.09
2013-9-2,92,81,76,77,75,72,93,81,55,29.91,29.79,8,1,16,0.09
2013-9-3,89,79,69,74,67,61,95,71,43,30.00,29.88,5,1,13,0.00
2013-9-4,89,76,64,69,65,62,96,72,47,30.09,29.98,5,1,13,0.00
2013-9-5,90,76,64,67,64,62,93,73,47,30.10,30.06,0,0,2,0.00
2013-9-6,94,85,73,68,67,64,82,57,38,30.10,30.00,4,0,7,0.00
2013-9-7,98,80,66,72,66,-100,95,68,35,30.05,29.93,4,0,7,0.00
2013-9-8,100,81,69,75,70,66,95,74,35,29.97,29.85,3,0,6,0.00
2013-9-9,94,83,74,77,73,70,92,74,49,30.01,29.91,3,0,11,0.09
2013-9-10,76,74,72,73,72,70,94,92,86,30.05,29.99,4,0,7,0.10
2013-9-11,95,85,73,76,73,71,96,71,47,30.13,30.03,6,0,8,0.00
2013-9-12,95,83,71,75,72,69,96,71,47,30.04,29.90,7,1,9,0.00
2013-9-13,84,75,66,71,61,55,88,65,39,29.99,29.92,8,2,12,0.00
2013-9-14,77,66,57,56,51,-100,85,63,39,30.08,29.98,7,1,11,0.00
2013-9-15,90,68,53,62,56,51,95,72,29,30.06,30.01,4,0,6,0.00
2013-9-16,90,75,60,69,61,54,95,67,31,30.12,30.05,7,1,13,0.00
2013-9-17,94,79,66,69,66,64,94,69,40,30.13,30.00,4,0,6,0.00
2013-9-18,76,73,71,70,68,67,89,85,77,30.06,30.01,7,1,10,0.00
2013-9-19,93,81,70,73,69,66,94,69,43,30.06,29.92,7,1,14,0.00
2013-9-20,79,74,70,74,70,67,97,88,66,29.96,29.80,6,0,9,2.40
2013-9-21,70,64,59,69,58,-100,97,90,86,29.87,29.78,5,1,9,2.49
2013-9-22,79,66,53,58,55,52,96,70,43,29.93,29.84,10,1,12,0.00
2013-9-23,84,69,55,65,58,53,93,71,42,29.94,29.83,7,1,10,0.00
2013-9-24,80,70,64,72,67,61,96,90,77,29.88,29.77,5,0,8,0.10
2013-9-25,85,76,69,72,68,65,97,80,53,29.81,29.74,5,1,8,0.10
2013-9-26,89,75,64,71,67,63,97,77,49,29.96,29.81,4,0,12,0.00
2013-9-27,89,74,63,69,65,62,96,76,46,30.06,29.96,6,0,8,0.00
2013-9-28,85,74,63,63,60,-100,90,66,46,30.10,29.98,7,1,11,0.00
2013-9-29,71,68,65,66,63,60,96,86,69,30.02,29.93,4,0,8,0.07
2013-9-30,76,70,66,70,68,65,97,91,81,29.95,29.89,4,0,9,0.02
2013-10-1,79,75,74,72,71,70,88,86,80,30.02,29.98,0,0,4,0.01
2013-10-2,86,76,69,71,68,66,96,79,54,30.08,29.99,4,0,9,0.01
2013-10-3,88,78,66,73,69,64,95,76,55,30.02,29.92,5,1,11,0.00
2013-10-4,85,76,70,74,71,68,95,84,68,30.03,29.94,8,1,10,0.00
2013-10-5,76,74,73,72,72,70,93,90,87,29.99,29.96,2,0,11,0.00
2013-10-7,69,60,48,53,50,46,95,73,53,30.09,29.96,8,2,12,0.00
2013-10-8,75,61,48,56,51,46,95,73,45,30.13,30.03,7,1,12,0.00
2013-10-9,79,70,54,66,62,52,94,78,61,30.11,30.04,7,1,11,0.00
2013-10-10,82,68,58,66,61,57,97,81,50,30.13,29.98,3,0,6,0.00
2013-10-11,85,69,57,65,60,56,97,78,45,30.03,29.93,5,1,7,0.01
2013-10-12,76,66,59,69,62,-100,97,89,78,30.10,29.96,4,0,10,0.20
2013-10-13,81,69,62,67,63,55,97,81,59,30.23,30.10,7,1,10,0.01
2013-10-14,83,68,55,66,60,52,91,76,49,30.20,30.03,4,0,7,0.01
2013-10-15,73,70,67,67,65,63,95,85,75,30.04,29.92,7,2,11,0.43
2013-10-16,68,61,56,67,59,54,96,93,84,30.01,29.92,7,1,11,0.88
2013-10-17,68,59,50,58,54,48,96,83,52,30.01,29.93,5,0,9,0.02
2013-10-18,73,59,45,57,51,44,97,78,45,30.05,29.92,2,0,9,0.00
2013-10-19,60,53,43,56,47,-100,95,83,60,30.05,29.89,7,2,13,0.02
2013-10-20,58,43,39,47,41,38,96,92,61,30.09,30.03,2,0,7,0.01
2013-10-22,69,61,52,49,46,41,91,62,38,30.02,29.87,1,0,5,0.00
2013-10-23,60,51,44,44,42,40,91,75,47,30.10,30.06,0,0,0,0.00
2013-10-24,63,52,43,49,42,37,95,73,49,30.35,30.08,12,2,16,0.00
2013-10-25,55,47,35,38,33,28,90,61,37,30.50,30.30,8,1,12,0.00
2013-10-26,65,48,36,45,38,34,94,72,43,30.30,30.10,11,1,12,0.00
2013-10-27,59,59,57,55,54,54,90,86,85,30.08,30.06,0,0,4,0.00
2013-10-28,70,60,57,61,52,-100,93,86,72,30.19,30.14,0,0,0,0.00
2013-10-29,75,64,53,67,60,51,97,87,71,30.22,30.08,8,1,11,0.00
2013-10-30,76,69,62,67,64,60,94,83,72,30.15,29.93,8,2,12,0.00
2013-10-31,71,68,63,68,65,52,95,89,63,29.93,29.54,11,5,19,1.39
2013-11-1,74,61,50,54,51,46,96,72,39,29.88,29.74,5,1,11,0.01
2013-11-2,61,52,43,52,43,-100,93,76,51,30.18,29.87,9,2,18,0.02
2013-11-3,63,48,37,45,40,35,96,78,43,30.29,30.12,4,0,8,0.01
2013-11-4,64,52,42,51,45,40,93,78,53,30.26,30.16,7,1,9,0.01
2013-11-5,72,62,54,54,50,45,82,66,52,30.27,30.11,9,2,14,0.00
2013-11-6,62,58,46,61,52,41,95,81,68,30.22,30.01,12,4,17,0.25
2013-11-7,57,47,39,41,37,33,92,72,41,30.39,30.23,10,3,13,0.11
2013-11-8,65,48,34,43,37,32,96,71,32,30.37,30.19,1,0,3,0.00
2013-11-9,61,50,41,47,41,-100,93,73,50,30.27,30.16,3,0,8,0.00
2013-11-10,69,54,43,51,44,40,95,72,38,30.33,30.23,7,1,12,0.00
2013-11-11,72,53,38,50,43,36,95,73,34,30.28,30.13,2,0,5,0.00
2013-11-12,53,41,31,50,31,23,93,70,46,30.65,30.19,15,7,21,0.00
2013-11-13,45,32,27,30,25,22,88,75,50,30.69,30.43,8,1,9,0.00
2013-11-14,58,42,26,30,26,22,93,59,25,30.42,30.14,7,1,13,0.00
2013-11-15,61,50,41,53,45,30,94,82,64,30.14,29.99,7,1,9,0.07
2013-11-16,69,60,53,65,56,-100,96,89,86,30.02,29.84,14,2,20,0.02
2013-11-17,77,70,63,71,65,42,96,83,43,29.96,29.68,12,4,17,0.85
2013-11-18,64,54,43,48,38,31,90,54,31,30.23,29.97,9,1,14,0.01
2013-11-19,52,45,37,33,30,25,80,55,36,30.28,30.14,7,1,12,0.00
2013-11-20,65,48,33,43,36,30,92,67,38,30.16,30.04,7,1,13,0.00
2013-11-21,68,59,52,60,52,42,95,80,67,30.17,30.08,8,2,15,0.01
2013-11-22,60,54,44,59,51,40,98,92,86,30.37,30.12,14,4,17,0.44
2013-11-23,46,40,31,40,30,-100,90,68,39,30.55,30.34,17,7,23,0.01
2013-11-24,37,30,23,20,17,15,72,59,43,30.63,30.41,14,5,17,0.00
2013-11-25,36,35,32,34,28,18,94,76,52,30.42,30.13,5,0,8,0.16
2013-11-26,41,37,35,37,34,26,95,87,67,30.11,29.93,13,4,17,0.05
2013-11-27,35,30,23,26,18,15,86,64,51,30.38,30.11,11,4,18,0.00
2013-11-28,47,33,21,27,22,18,91,67,37,30.46,30.36,6,1,9,0.00
2013-11-29,58,40,27,36,30,25,93,71,37,30.54,30.40,3,0,8,0.00
2013-11-30,58,44,28,34,28,-100,94,61,34,30.41,30.19,6,1,12,0.00
2013-12-1,57,51,44,45,38,33,70,61,54,30.19,29.91,3,1,12,0.00
2013-12-2,61,56,49,54,49,43,92,80,66,29.91,29.69,6,0,6,0.00
2013-12-3,60,54,46,58,53,44,97,94,90,29.74,29.65,5,0,7,0.00
2013-12-4,75,68,59,65,63,58,96,83,68,29.79,29.65,13,3,17,0.00
2013-12-5,70,50,34,66,46,32,95,88,77,30.13,29.79,13,5,16,0.06
2013-12-6,34,31,26,33,29,24,100,93,92,30.41,30.04,11,2,13,0.57
2013-12-7,29,25,22,27,22,-100,93,89,88,30.55,30.32,0,0,0,0.01
2013-12-8,35,33,29,34,31,27,100,94,93,30.33,30.05,3,0,6,0.15
2013-12-9,34,32,31,31,29,28,95,88,83,30.28,30.14,8,3,11,0.02
2013-12-10,40,32,26,30,26,21,92,78,60,30.42,30.19,7,2,10,0.02
2013-12-11,46,33,23,35,27,21,95,80,51,30.56,30.37,6,1,8,0.01
2013-12-12,47,33,22,25,20,15,84,63,30,30.60,30.37,5,1,10,0.01
2013-12-13,49,37,25,38,26,22,93,70,36,30.37,29.91,5,1,11,0.55
2013-12-14,45,41,36,44,36,-100,96,88,81,30.12,29.77,9,4,19,1.25
2013-12-15,41,36,33,32,30,28,90,80,68,30.26,30.12,7,2,14,0.01
2013-12-16,59,46,33,40,36,30,91,70,47,30.19,30.09,8,2,18,0.00
2013-12-17,60,48,35,41,37,32,89,67,48,30.27,30.13,6,2,17,0.00
2013-12-18,60,45,31,39,33,29,94,67,35,30.33,30.10,6,2,13,0.00
2013-12-19,61,58,50,53,50,39,76,75,65,30.12,29.91,8,4,10,0.00
2013-12-20,69,65,61,65,60,54,95,85,76,29.95,29.78,11,4,17,0.49
2013-12-21,75,66,54,67,60,-100,95,85,71,29.78,29.44,14,4,18,0.26
2013-12-22,56,49,38,53,46,32,96,89,79,30.22,29.69,9,2,16,0.08
2013-12-23,38,34,28,32,27,25,89,75,64,30.49,30.22,9,4,18,0.00
2013-12-24,37,30,25,27,20,16,91,70,45,30.60,30.40,8,2,13,0.00
2013-12-25,51,36,22,34,25,19,91,67,39,30.40,30.28,4,0,7,0.00
2013-12-26,49,38,29,32,29,26,93,73,43,30.42,30.32,6,0,13,0.00
2013-12-27,58,40,27,34,30,25,94,71,33,30.45,30.34,1,0,7,0.00
2013-12-28,48,40,33,41,34,-100,94,82,63,30.33,29.95,4,0,5,0.04
2013-12-29,56,46,35,44,40,29,96,80,60,30.18,29.94,9,2,17,0.11
2013-12-30,35,32,30,30,26,24,82,78,76,30.34,30.18,8,2,13,0.00
2013-12-31,50,36,24,33,27,22,94,73,44,30.45,30.30,3,0,6,0.00
2014-1-1,55,42,27,44,33,25,93,72,46,30.28,29.92,9,1,12,0.02
2014-1-2,50,35,24,48,28,14,93,76,63,30.43,29.88,12,6,22,0.18